Time;durP1;ratioP1;P1;durP2;ratioP2;P2;SDS_P1;SDS_P2;PMS_P1;PMS_P2;Temp;Humidity;BMP_temperature;BMP_pressure;BME280_temperature;BME280_humidity;BME280_pressure;Samples;Min_cycle;Max_cycle;Signal;HPM_P1;HPM_P2
2023/01/15 00:01:00;;;;;;;9.77;1.48;;;6.20;99.90;;;;;;5067469;28;20055;-69
2023/01/15 00:03:27;;;;;;;10.95;1.35;;;6.20;99.90;;;;;;5070656;28;20102;-68
2023/01/15 00:05:53;;;;;;;11.13;1.20;;;6.20;99.90;;;;;;5067336;28;20049;-68
2023/01/15 00:08:18;;;;;;;12.02;1.58;;;6.20;99.90;;;;;;5083513;28;20094;-68
2023/01/15 00:10:44;;;;;;;7.88;1.00;;;6.10;99.90;;;;;;5086377;28;20036;-68
2023/01/15 00:13:10;;;;;;;14.07;1.70;;;6.20;99.90;;;;;;5062271;28;20047;-68
2023/01/15 00:15:36;;;;;;;12.15;1.45;;;6.20;99.90;;;;;;5086613;28;20417;-68
2023/01/15 00:18:03;;;;;;;7.85;1.00;;;6.20;99.90;;;;;;5067231;28;20032;-69
2023/01/15 00:20:28;;;;;;;9.02;2.03;;;6.20;99.90;;;;;;5083112;28;20860;-68
2023/01/15 00:22:54;;;;;;;12.50;1.58;;;6.20;99.90;;;;;;5065123;28;20062;-69
2023/01/15 00:28:04;;;;;;;9.52;1.45;;;6.20;99.90;;;;;;5064868;28;20082;-68
2023/01/15 00:30:30;;;;;;;10.88;1.48;;;6.10;99.90;;;;;;5084678;28;20047;-68
2023/01/15 00:32:57;;;;;;;10.85;1.70;;;6.20;99.90;;;;;;5066772;28;20074;-68
2023/01/15 00:35:23;;;;;;;9.55;1.40;;;6.10;99.90;;;;;;5065290;28;20044;-69
2023/01/15 00:37:49;;;;;;;12.48;1.65;;;6.10;99.90;;;;;;5066156;28;20059;-68
2023/01/15 00:40:18;;;;;;;10.15;1.50;;;6.20;99.90;;;;;;5078776;28;20085;-68
2023/01/15 00:42:43;;;;;;;13.57;2.17;;;6.10;99.90;;;;;;5069106;28;20052;-68
2023/01/15 00:45:11;;;;;;;19.20;1.85;;;6.10;99.90;;;;;;5063376;28;20037;-68
2023/01/15 00:47:41;;;;;;;15.48;1.42;;;6.10;99.90;;;;;;5080566;28;20045;-69
2023/01/15 00:50:10;;;;;;;10.95;1.50;;;6.10;99.90;;;;;;5075315;28;20352;-69
2023/01/15 00:52:35;;;;;;;14.38;1.67;;;6.10;99.90;;;;;;5065346;28;20045;-68
2023/01/15 00:55:01;;;;;;;17.08;2.03;;;6.20;99.90;;;;;;5062541;28;20449;-69
2023/01/15 00:57:27;;;;;;;10.10;1.42;;;6.10;99.90;;;;;;5081701;28;20036;-68
2023/01/15 00:59:53;;;;;;;12.93;1.70;;;6.20;99.90;;;;;;5081653;28;20040;-68
2023/01/15 01:02:19;;;;;;;10.52;1.60;;;6.20;99.90;;;;;;5083003;28;20392;-68
2023/01/15 01:04:45;;;;;;;9.65;1.73;;;6.20;99.90;;;;;;5082944;28;20047;-68
2023/01/15 01:07:11;;;;;;;10.48;1.63;;;6.20;99.90;;;;;;5061365;28;20051;-68
2023/01/15 01:09:37;;;;;;;17.70;2.25;;;6.20;99.90;;;;;;5058103;28;20047;-68
2023/01/15 01:12:03;;;;;;;13.23;1.80;;;6.20;99.90;;;;;;5070167;28;20431;-68
2023/01/15 01:14:28;;;;;;;13.02;1.83;;;6.20;99.90;;;;;;5080035;28;20041;-68
2023/01/15 01:16:54;;;;;;;10.15;1.40;;;6.20;99.90;;;;;;5059320;28;20096;-68
2023/01/15 01:19:22;;;;;;;10.88;1.50;;;6.20;99.90;;;;;;5080212;28;20142;-68
2023/01/15 01:21:49;;;;;;;11.82;1.70;;;6.20;99.90;;;;;;5080457;28;20071;-68
2023/01/15 01:24:17;;;;;;;11.13;1.50;;;6.20;99.90;;;;;;5082331;28;20037;-68
2023/01/15 01:26:44;;;;;;;10.77;1.45;;;6.10;99.90;;;;;;5061234;28;20502;-68
2023/01/15 01:29:19;;;;;;;12.52;1.42;;;6.10;99.90;;;;;;5066072;28;20448;-68
2023/01/15 01:31:45;;;;;;;15.02;2.13;;;6.10;99.90;;;;;;5058013;28;20051;-68
2023/01/15 01:34:13;;;;;;;14.45;1.35;;;6.10;99.90;;;;;;5082101;28;20372;-68
2023/01/15 01:36:40;;;;;;;13.32;1.88;;;6.10;99.90;;;;;;5077242;28;20044;-68
2023/01/15 01:39:10;;;;;;;11.73;1.63;;;6.10;99.90;;;;;;5045025;28;20040;-68
2023/01/15 01:41:37;;;;;;;15.70;1.75;;;6.00;99.90;;;;;;5081731;28;20109;-68
2023/01/15 01:44:27;;;;;;;9.65;1.30;;;6.10;99.90;;;;;;5065965;28;20040;-68
2023/01/15 01:46:53;;;;;;;11.57;1.85;;;6.10;99.90;;;;;;5074904;28;20127;-68
2023/01/15 01:49:19;;;;;;;11.23;1.40;;;6.00;99.90;;;;;;5083600;28;20171;-68
2023/01/15 01:51:55;;;;;;;15.75;2.38;;;6.10;99.90;;;;;;5064526;28;20051;-68
2023/01/15 01:54:25;;;;;;;12.30;2.35;;;6.00;99.90;;;;;;5082694;28;20128;-68
2023/01/15 01:56:52;;;;;;;8.00;1.55;;;6.10;99.90;;;;;;5076170;28;20123;-68
2023/01/15 01:59:20;;;;;;;12.25;1.60;;;6.10;99.90;;;;;;5066433;28;20139;-68
2023/01/15 02:01:48;;;;;;;14.05;2.03;;;6.10;99.90;;;;;;5079328;28;20140;-65
2023/01/15 02:04:14;;;;;;;12.13;1.60;;;6.00;99.90;;;;;;5061422;28;20575;-65
2023/01/15 02:06:41;;;;;;;11.35;1.83;;;6.00;99.90;;;;;;5051847;28;20131;-66
2023/01/15 02:09:08;;;;;;;10.63;1.75;;;6.00;99.90;;;;;;5061241;28;20045;-66
2023/01/15 02:11:34;;;;;;;13.38;2.40;;;6.00;99.90;;;;;;5080650;28;20059;-66
2023/01/15 02:14:29;;;;;;;11.25;1.33;;;6.00;99.90;;;;;;5081956;28;20041;-66
2023/01/15 02:17:00;;;;;;;10.10;1.52;;;6.00;99.90;;;;;;5085301;28;20040;-66
2023/01/15 02:20:12;;;;;;;11.82;1.63;;;6.00;99.90;;;;;;5081175;28;20059;-66
2023/01/15 02:23:11;;;;;;;14.48;1.73;;;6.00;99.90;;;;;;5082797;28;20413;-65
2023/01/15 02:26:05;;;;;;;15.65;2.22;;;6.00;99.90;;;;;;5083549;28;20610;-65
2023/01/15 02:28:36;;;;;;;13.82;2.28;;;5.90;99.90;;;;;;5080479;28;20048;-66
2023/01/15 02:31:21;;;;;;;8.82;1.58;;;6.00;99.90;;;;;;5066621;28;20055;-65
2023/01/15 02:34:02;;;;;;;11.95;1.67;;;5.90;99.90;;;;;;5077150;28;20052;-66
2023/01/15 02:36:32;;;;;;;12.23;2.08;;;6.00;99.90;;;;;;5086261;28;20055;-65
2023/01/15 02:39:03;;;;;;;14.93;2.10;;;5.90;99.90;;;;;;5082455;28;20086;-65
2023/01/15 02:41:35;;;;;;;11.02;1.30;;;5.90;99.90;;;;;;5062769;28;20380;-67
2023/01/15 02:44:04;;;;;;;9.48;1.70;;;5.90;99.90;;;;;;5072840;28;20031;-65
2023/01/15 02:46:33;;;;;;;14.55;1.73;;;5.90;99.90;;;;;;5062758;28;20047;-66
2023/01/15 02:49:01;;;;;;;11.52;1.70;;;5.90;99.90;;;;;;5051137;28;20041;-66
2023/01/15 02:51:35;;;;;;;14.35;1.83;;;5.90;99.90;;;;;;5081522;28;20117;-66
2023/01/15 02:54:05;;;;;;;14.05;1.58;;;5.90;99.90;;;;;;5081418;28;20093;-66
2023/01/15 02:56:34;;;;;;;18.73;1.60;;;5.90;99.90;;;;;;5063308;28;20113;-65
2023/01/15 02:59:06;;;;;;;12.40;1.55;;;5.90;99.90;;;;;;5062385;28;20041;-66
2023/01/15 03:01:40;;;;;;;14.52;1.65;;;5.90;99.90;;;;;;5082702;28;20124;-66
2023/01/15 03:04:15;;;;;;;12.07;1.40;;;5.90;99.90;;;;;;5082239;28;20048;-64
2023/01/15 03:06:47;;;;;;;9.13;1.70;;;5.90;99.90;;;;;;5082193;28;20302;-64
2023/01/15 03:09:14;;;;;;;11.27;1.92;;;5.90;99.90;;;;;;5064762;28;20155;-65
2023/01/15 03:11:52;;;;;;;13.18;1.60;;;6.00;99.90;;;;;;5059631;28;20044;-64
2023/01/15 03:14:27;;;;;;;16.83;2.25;;;6.00;99.90;;;;;;5077148;28;20037;-64
2023/01/15 03:16:58;;;;;;;14.00;1.90;;;5.90;99.90;;;;;;5082163;28;20044;-65
2023/01/15 03:19:38;;;;;;;11.50;1.77;;;5.90;99.90;;;;;;5064469;28;20319;-65
2023/01/15 03:22:03;;;;;;;13.82;2.45;;;6.00;99.90;;;;;;5081134;28;20045;-65
2023/01/15 03:24:38;;;;;;;13.82;2.33;;;6.00;99.90;;;;;;5080592;28;20036;-64
2023/01/15 03:27:04;;;;;;;9.38;1.83;;;6.00;99.90;;;;;;5062949;28;20044;-64
2023/01/15 03:29:35;;;;;;;9.80;1.58;;;6.00;99.90;;;;;;5082526;28;20039;-64
2023/01/15 03:32:01;;;;;;;16.02;1.83;;;6.00;99.90;;;;;;5060408;28;20044;-63
2023/01/15 03:34:36;;;;;;;14.27;1.58;;;6.00;99.90;;;;;;5079368;28;20036;-63
2023/01/15 03:37:02;;;;;;;18.08;1.67;;;6.00;99.90;;;;;;5084229;28;20107;-64
2023/01/15 03:39:28;;;;;;;10.38;1.80;;;6.00;99.90;;;;;;5077704;28;20051;-64
2023/01/15 03:42:19;;;;;;;16.77;2.38;;;5.90;99.90;;;;;;5078716;28;20044;-64
2023/01/15 03:44:59;;;;;;;15.82;1.73;;;5.90;99.90;;;;;;5065175;28;20056;-64
2023/01/15 03:47:34;;;;;;;10.90;2.05;;;5.90;99.90;;;;;;5078399;28;20043;-65
2023/01/15 03:50:18;;;;;;;;;;;5.90;99.90;;;;;;5076815;28;20033;-64
2023/01/15 03:52:51;;;;;;;11.80;2.33;;;5.90;99.90;;;;;;5086238;28;20283;-64
2023/01/15 03:55:29;;;;;;;21.85;2.35;;;5.90;99.90;;;;;;5079190;28;20101;-64
2023/01/15 03:58:00;;;;;;;13.73;1.77;;;5.90;99.90;;;;;;5065665;28;20048;-65
2023/01/15 04:00:37;;;;;;;13.82;2.10;;;5.90;99.90;;;;;;5083512;28;20071;-64
2023/01/15 04:03:07;;;;;;;12.32;1.75;;;5.80;99.90;;;;;;5082284;28;20039;-64
2023/01/15 04:05:36;;;;;;;10.30;1.85;;;5.80;99.90;;;;;;5080512;28;20051;-65
2023/01/15 04:08:02;;;;;;;10.93;1.90;;;5.80;99.90;;;;;;5080365;28;20044;-65
2023/01/15 04:10:28;;;;;;;9.45;1.65;;;5.80;99.90;;;;;;5058579;28;20115;-64
2023/01/15 04:12:54;;;;;;;11.43;1.60;;;5.80;99.90;;;;;;5064388;28;20127;-65
2023/01/15 04:15:19;;;;;;;12.80;1.58;;;5.70;99.90;;;;;;5080899;28;20040;-64
2023/01/15 04:17:45;;;;;;;13.25;1.75;;;5.70;99.90;;;;;;5082115;28;20092;-65
2023/01/15 04:20:12;;;;;;;11.85;1.85;;;5.70;99.90;;;;;;5083367;28;20085;-65
2023/01/15 04:22:37;;;;;;;10.63;1.92;;;5.70;99.90;;;;;;5066896;28;20185;-64
2023/01/15 04:25:05;;;;;;;11.95;1.88;;;5.80;99.90;;;;;;5085782;28;20516;-66
2023/01/15 04:27:31;;;;;;;9.52;1.60;;;5.70;99.90;;;;;;5080017;28;20415;-65
2023/01/15 04:29:57;;;;;;;16.33;2.10;;;5.70;99.90;;;;;;5081979;28;20468;-65
2023/01/15 04:32:22;;;;;;;14.02;1.70;;;5.70;99.90;;;;;;5081428;28;20165;-64
2023/01/15 04:34:49;;;;;;;10.18;1.88;;;5.70;99.90;;;;;;5079825;28;20036;-65
2023/01/15 04:37:16;;;;;;;14.27;2.00;;;5.70;99.90;;;;;;5081869;28;20094;-65
2023/01/15 04:39:41;;;;;;;13.40;1.65;;;5.70;99.90;;;;;;5063225;28;20120;-65
2023/01/15 04:44:58;;;;;;;11.80;1.70;;;5.70;99.90;;;;;;5078201;28;20144;-65
2023/01/15 04:47:24;;;;;;;15.05;2.00;;;5.70;99.90;;;;;;5062988;28;20154;-65
2023/01/15 04:49:50;;;;;;;18.02;2.20;;;5.70;99.90;;;;;;5080923;28;20040;-65
2023/01/15 04:52:16;;;;;;;14.52;1.67;;;5.70;99.90;;;;;;5060268;28;20031;-65
2023/01/15 04:54:42;;;;;;;9.40;1.65;;;5.80;99.90;;;;;;5081096;28;20051;-65
2023/01/15 04:57:07;;;;;;;10.98;1.70;;;5.80;99.90;;;;;;5063117;28;20040;-65
2023/01/15 04:59:33;;;;;;;12.25;1.48;;;5.80;99.90;;;;;;5073422;28;20051;-65
2023/01/15 05:01:59;;;;;;;10.93;1.58;;;5.80;99.90;;;;;;5077953;28;20041;-66
2023/01/15 05:04:25;;;;;;;12.05;2.28;;;5.70;99.90;;;;;;5076670;28;20033;-66
2023/01/15 05:06:52;;;;;;;17.52;1.95;;;5.80;99.90;;;;;;5063175;28;20059;-65
2023/01/15 05:09:17;;;;;;;10.43;1.58;;;5.80;99.90;;;;;;5080673;28;20216;-65
2023/01/15 05:11:43;;;;;;;15.38;1.90;;;5.70;99.90;;;;;;5083691;28;20079;-65
2023/01/15 05:14:09;;;;;;;15.68;1.80;;;5.70;99.90;;;;;;5076661;28;20046;-65
2023/01/15 05:16:37;;;;;;;11.82;1.85;;;5.70;99.90;;;;;;5061815;28;20060;-64
2023/01/15 05:19:06;;;;;;;11.02;1.75;;;5.60;99.90;;;;;;5082305;28;20043;-65
2023/01/15 05:21:39;;;;;;;12.57;1.80;;;5.60;99.90;;;;;;5067530;28;20040;-65
2023/01/15 05:24:07;;;;;;;12.18;1.95;;;5.60;99.90;;;;;;5062431;28;20039;-65
2023/01/15 05:26:34;;;;;;;11.50;1.40;;;5.60;99.90;;;;;;5075448;28;20511;-65
2023/01/15 05:29:00;;;;;;;12.63;1.90;;;5.60;99.90;;;;;;5064340;28;20037;-65
2023/01/15 05:31:26;;;;;;;12.80;2.83;;;5.50;99.90;;;;;;5064758;28;20086;-65
2023/01/15 05:33:53;;;;;;;16.20;1.75;;;5.50;99.90;;;;;;5077653;28;20036;-65
2023/01/15 05:36:22;;;;;;;10.07;1.33;;;5.50;99.90;;;;;;5063181;28;20114;-65
2023/01/15 05:38:48;;;;;;;12.23;1.52;;;5.50;99.90;;;;;;5082302;28;20040;-64
2023/01/15 05:44:06;;;;;;;14.32;2.20;;;5.40;99.90;;;;;;5080483;28;20186;-66
2023/01/15 05:46:34;;;;;;;10.43;1.58;;;5.40;99.90;;;;;;5066132;28;20063;-65
2023/01/15 05:49:01;;;;;;;16.58;2.10;;;5.40;99.90;;;;;;5079346;28;20056;-65
2023/01/15 05:51:27;;;;;;;14.40;2.40;;;5.40;99.90;;;;;;5071349;28;20116;-65
2023/01/15 05:53:53;;;;;;;16.02;1.63;;;5.30;99.90;;;;;;5079626;28;20040;-65
2023/01/15 05:56:18;;;;;;;15.82;1.67;;;5.30;99.90;;;;;;5070941;28;20609;-65
2023/01/15 05:58:44;;;;;;;12.10;1.63;;;5.40;99.90;;;;;;5082323;28;20043;-65
2023/01/15 06:01:10;;;;;;;11.15;1.52;;;5.30;99.90;;;;;;5081256;28;20032;-65
2023/01/15 06:03:36;;;;;;;10.68;1.58;;;5.40;99.90;;;;;;5075100;28;20479;-65
2023/01/15 06:06:03;;;;;;;13.45;1.80;;;5.30;99.90;;;;;;5068709;28;20058;-65
2023/01/15 06:08:29;;;;;;;12.88;1.88;;;5.30;99.90;;;;;;5061738;28;20055;-66
2023/01/15 06:10:55;;;;;;;7.60;1.50;;;5.30;99.90;;;;;;5077484;28;20369;-65
2023/01/15 06:13:20;;;;;;;13.98;2.97;;;5.30;99.90;;;;;;5058783;28;20052;-65
2023/01/15 06:15:46;;;;;;;8.07;1.38;;;5.30;99.90;;;;;;5065432;28;20775;-65
2023/01/15 06:18:12;;;;;;;8.13;1.40;;;5.30;99.90;;;;;;5082108;28;20060;-65
2023/01/15 06:20:39;;;;;;;10.30;1.48;;;5.40;99.90;;;;;;5076580;28;20448;-65
2023/01/15 06:23:06;;;;;;;7.50;1.63;;;5.30;99.90;;;;;;5080756;28;20044;-65
2023/01/15 06:25:37;;;;;;;8.85;1.70;;;5.30;99.90;;;;;;5078206;28;20070;-65
2023/01/15 06:28:04;;;;;;;11.60;1.95;;;5.30;99.90;;;;;;5083220;28;20513;-66
2023/01/15 06:30:29;;;;;;;9.57;1.10;;;5.30;99.90;;;;;;5083056;28;20135;-65
2023/01/15 06:32:55;;;;;;;13.43;1.52;;;5.30;99.90;;;;;;5069147;28;20116;-65
2023/01/15 06:35:21;;;;;;;8.82;1.30;;;5.30;99.90;;;;;;5083601;28;20123;-66
2023/01/15 06:37:49;;;;;;;10.82;1.55;;;5.30;99.90;;;;;;5083943;28;20116;-66
2023/01/15 06:40:15;;;;;;;9.52;1.20;;;5.30;99.90;;;;;;5083562;28;20040;-66
2023/01/15 06:48:10;;;;;;;10.35;1.98;;;5.20;99.90;;;;;;5076877;28;20143;-65
2023/01/15 06:50:36;;;;;;;9.30;1.30;;;5.20;99.90;;;;;;5061552;28;20469;-65
2023/01/15 06:53:01;;;;;;;10.40;1.38;;;5.10;99.90;;;;;;5079662;28;20036;-65
2023/01/15 06:55:27;;;;;;;15.88;1.92;;;5.10;99.90;;;;;;5086341;28;20025;-65
2023/01/15 06:57:53;;;;;;;17.48;2.08;;;5.10;99.90;;;;;;5067940;28;20428;-65
2023/01/15 07:00:19;;;;;;;10.98;1.33;;;5.10;99.90;;;;;;5070480;28;20174;-65
2023/01/15 07:02:44;;;;;;;12.60;1.65;;;5.10;99.90;;;;;;5085139;28;20044;-65
2023/01/15 07:05:10;;;;;;;13.05;1.92;;;5.10;99.90;;;;;;5067669;28;20097;-65
2023/01/15 07:07:36;;;;;;;7.32;1.27;;;5.10;99.90;;;;;;5088002;28;20048;-65
2023/01/15 07:10:02;;;;;;;7.10;1.48;;;5.00;99.90;;;;;;5066549;28;20092;-64
2023/01/15 07:12:28;;;;;;;4.60;1.00;;;5.00;99.90;;;;;;5074515;28;20043;-65
2023/01/15 07:14:53;;;;;;;11.65;1.60;;;5.00;99.90;;;;;;5085925;28;20032;-66
2023/01/15 07:17:19;;;;;;;8.27;1.55;;;4.90;99.90;;;;;;5077134;28;20413;-65
2023/01/15 07:19:45;;;;;;;12.70;1.50;;;4.90;99.90;;;;;;5063475;28;20043;-65
2023/01/15 07:22:11;;;;;;;9.15;1.30;;;4.90;99.90;;;;;;5068737;28;20380;-65
2023/01/15 07:24:37;;;;;;;12.70;1.65;;;4.90;99.90;;;;;;5086713;28;20522;-66
2023/01/15 07:27:03;;;;;;;10.00;1.50;;;5.00;99.90;;;;;;5086051;28;20064;-65
2023/01/15 07:29:29;;;;;;;12.48;1.38;;;4.90;99.90;;;;;;5082961;28;20123;-65
2023/01/15 07:31:55;;;;;;;12.65;1.40;;;4.90;99.90;;;;;;5083794;28;20150;-65
2023/01/15 07:34:21;;;;;;;9.00;1.50;;;4.90;99.90;;;;;;5087179;28;20040;-66
2023/01/15 07:36:46;;;;;;;10.25;1.63;;;4.90;99.90;;;;;;5085572;28;20452;-65
2023/01/15 07:39:12;;;;;;;9.50;1.98;;;4.80;99.90;;;;;;5082033;28;20143;-65
2023/01/15 07:50:08;;;;;;;8.50;1.27;;;4.80;99.90;;;;;;5058870;28;20092;-65
2023/01/15 07:52:33;;;;;;;8.77;1.25;;;4.70;99.90;;;;;;5086190;28;20392;-66
2023/01/15 07:55:00;;;;;;;4.88;1.05;;;4.80;99.90;;;;;;5061418;28;20043;-65
2023/01/15 07:57:25;;;;;;;10.88;1.67;;;4.70;99.90;;;;;;5081968;28;20032;-66
2023/01/15 07:59:51;;;;;;;10.25;1.27;;;4.80;99.90;;;;;;5062506;28;20041;-64
2023/01/15 08:02:17;;;;;;;9.27;1.40;;;4.70;99.90;;;;;;5078287;28;20059;-66
2023/01/15 08:04:43;;;;;;;7.30;1.50;;;4.70;99.90;;;;;;5060515;28;20086;-65
2023/01/15 08:07:09;;;;;;;9.40;1.27;;;4.70;99.90;;;;;;5081260;28;20052;-65
2023/01/15 08:09:35;;;;;;;8.68;1.50;;;4.70;99.90;;;;;;5066514;28;20048;-65
2023/01/15 08:17:35;;;;;;;8.48;1.13;;;4.80;99.90;;;;;;5083851;28;20032;-65
2023/01/15 08:20:02;;;;;;;10.32;1.27;;;4.90;99.90;;;;;;5082196;28;20097;-65
2023/01/15 08:22:27;;;;;;;9.70;1.42;;;4.90;99.90;;;;;;5065386;28;20036;-65
2023/01/15 08:24:53;;;;;;;10.02;1.00;;;4.90;99.90;;;;;;5059379;28;20109;-66
2023/01/15 08:27:19;;;;;;;7.35;1.75;;;5.00;99.90;;;;;;5062372;28;20427;-65
2023/01/15 08:29:45;;;;;;;14.40;1.45;;;5.00;99.90;;;;;;5066355;28;20138;-65
2023/01/15 08:32:10;;;;;;;7.55;1.50;;;5.00;99.90;;;;;;5081648;28;20640;-65
2023/01/15 08:34:36;;;;;;;11.32;1.40;;;5.00;99.90;;;;;;5062587;28;20139;-64
2023/01/15 08:37:02;;;;;;;40.75;23.10;;;5.00;99.90;;;;;;5071712;28;20578;-64
2023/01/15 08:39:28;;;;;;;7.35;1.00;;;5.00;99.90;;;;;;5080597;28;20116;-65
2023/01/15 08:41:55;;;;;;;6.35;1.30;;;5.10;99.90;;;;;;5064557;28;20044;-65
2023/01/15 08:44:25;;;;;;;10.10;1.20;;;5.20;99.90;;;;;;5081315;28;20032;-65
2023/01/15 08:46:51;;;;;;;11.25;1.27;;;5.20;99.90;;;;;;5077947;28;20077;-64
2023/01/15 08:49:19;;;;;;;11.30;1.65;;;5.40;99.90;;;;;;5080813;28;20048;-65
2023/01/15 08:51:48;;;;;;;11.43;1.30;;;5.50;99.90;;;;;;5076119;28;20155;-65
2023/01/15 08:54:14;;;;;;;7.82;1.15;;;5.50;99.90;;;;;;5059123;28;20110;-65
2023/01/15 08:56:40;;;;;;;9.98;1.40;;;5.50;99.90;;;;;;5080685;28;20036;-66
2023/01/15 08:59:07;;;;;;;7.70;1.25;;;5.50;99.90;;;;;;5081705;28;20040;-65
2023/01/15 09:01:33;;;;;;;7.78;1.23;;;5.50;99.90;;;;;;5082346;28;20048;-65
2023/01/15 09:03:59;;;;;;;12.52;1.50;;;5.40;99.90;;;;;;5081984;28;20079;-66
2023/01/15 09:06:25;;;;;;;9.07;1.70;;;5.30;99.90;;;;;;5078002;28;20088;-66
2023/01/15 09:08:51;;;;;;;6.97;0.77;;;5.20;99.90;;;;;;5079550;28;20087;-64
2023/01/15 09:11:16;;;;;;;10.80;1.50;;;5.10;99.90;;;;;;5062148;28;20048;-65
2023/01/15 09:13:42;;;;;;;7.10;0.70;;;4.90;99.90;;;;;;5063442;28;20051;-65
2023/01/15 09:16:08;;;;;;;9.73;0.95;;;4.80;99.90;;;;;;5080769;28;20083;-64
2023/01/15 09:18:37;;;;;;;6.57;1.27;;;4.60;99.90;;;;;;5081388;28;20032;-63
2023/01/15 09:21:05;;;;;;;5.45;0.88;;;4.50;99.90;;;;;;5080926;28;20028;-66
2023/01/15 09:23:31;;;;;;;4.97;0.63;;;4.40;99.90;;;;;;5083302;28;20690;-65
2023/01/15 09:26:04;;;;;;;6.13;0.65;;;4.30;99.90;;;;;;5061970;28;20040;-65
2023/01/15 09:28:30;;;;;;;3.50;0.50;;;4.30;99.90;;;;;;5082781;28;20067;-64
2023/01/15 09:30:56;;;;;;;4.60;0.95;;;4.20;99.90;;;;;;5082992;28;20046;-64
2023/01/15 09:33:22;;;;;;;9.63;1.70;;;4.20;99.90;;;;;;5079607;28;20168;-64
2023/01/15 09:35:48;;;;;;;7.00;0.88;;;4.20;99.90;;;;;;5063596;28;20049;-63
2023/01/15 09:38:19;;;;;;;8.50;1.98;;;4.20;99.90;;;;;;5084511;28;20503;-64
2023/01/15 09:40:56;;;;;;;7.43;1.00;;;4.30;99.90;;;;;;5061133;28;20079;-64
2023/01/15 09:43:53;;;;;;;8.23;1.13;;;4.40;99.90;;;;;;5073790;28;20059;-64
2023/01/15 09:46:30;;;;;;;8.65;1.40;;;4.50;99.90;;;;;;5077756;28;20044;-64
2023/01/15 09:49:12;;;;;;;7.40;0.85;;;4.60;99.90;;;;;;5072221;28;20068;-65
2023/01/15 09:51:55;;;;;;;7.43;1.20;;;4.70;99.90;;;;;;5076266;28;20037;-64
2023/01/15 09:55:05;;;;;;;11.27;1.50;;;4.80;99.90;;;;;;5079826;28;20046;-64
2023/01/15 09:57:32;;;;;;;9.32;1.20;;;4.80;99.90;;;;;;4994607;28;20050;-64
2023/01/15 10:00:01;;;;;;;11.45;1.95;;;4.70;99.90;;;;;;5067163;28;20080;-64
2023/01/15 10:02:42;;;;;;;13.10;1.88;;;4.70;99.90;;;;;;5060033;28;20110;-64
2023/01/15 10:05:24;;;;;;;11.32;1.25;;;4.70;99.90;;;;;;5063761;28;20040;-64
2023/01/15 10:08:09;;;;;;;12.13;2.22;;;4.80;99.90;;;;;;5080297;28;20064;-64
2023/01/15 10:10:44;;;;;;;6.43;0.93;;;4.80;99.90;;;;;;5076164;28;20048;-64
2023/01/15 10:13:22;;;;;;;9.13;0.95;;;4.90;99.90;;;;;;5078408;28;20383;-64
2023/01/15 10:15:48;;;;;;;7.43;1.13;;;5.00;99.90;;;;;;5084122;28;20041;-64
2023/01/15 10:18:22;;;;;;;11.75;2.17;;;5.00;99.90;;;;;;5084227;28;20430;-64
2023/01/15 10:21:13;;;;;;;12.75;2.08;;;5.00;99.90;;;;;;5060649;28;20041;-65
2023/01/15 10:23:42;;;;;;;10.27;1.92;;;5.00;99.90;;;;;;5072395;28;20073;-64
2023/01/15 10:26:27;;;;;;;5.85;1.17;;;5.00;99.90;;;;;;5072636;28;20053;-64
2023/01/15 10:29:23;;;;;;;8.75;1.30;;;5.00;99.90;;;;;;5061465;28;20041;-64
2023/01/15 10:32:07;;;;;;;8.13;1.80;;;5.00;99.90;;;;;;5071712;28;20492;-64
2023/01/15 10:34:56;;;;;;;9.40;1.38;;;4.90;99.90;;;;;;5063352;28;20036;-64
2023/01/15 10:37:35;;;;;;;6.25;0.93;;;4.80;99.90;;;;;;5078305;28;20045;-65
2023/01/15 10:40:35;;;;;;;16.05;2.20;;;4.70;99.90;;;;;;5081227;28;20044;-63
2023/01/15 10:43:36;;;;;;;9.70;1.88;;;4.60;99.90;;;;;;5064641;28;20041;-65
2023/01/15 10:46:17;;;;;;;11.95;1.88;;;4.60;99.90;;;;;;5053684;28;20040;-64
2023/01/15 10:48:56;;;;;;;12.63;1.55;;;4.70;99.90;;;;;;5087362;28;20041;-64
2023/01/15 10:51:28;;;;;;;9.57;1.42;;;4.80;99.90;;;;;;5083722;28;20040;-64
2023/01/15 10:53:58;;;;;;;14.10;1.60;;;5.00;99.90;;;;;;5083642;28;20044;-65
2023/01/15 10:56:42;;;;;;;12.00;1.60;;;5.10;99.90;;;;;;5085157;28;20032;-65
2023/01/15 10:59:15;;;;;;;12.07;1.08;;;5.40;99.90;;;;;;5055877;28;20044;-64
2023/01/15 11:01:41;;;;;;;9.68;1.23;;;5.50;99.90;;;;;;5073642;28;20041;-65
2023/01/15 11:04:11;;;;;;;13.43;2.13;;;5.50;99.90;;;;;;5080830;28;20040;-64
2023/01/15 11:06:37;;;;;;;11.02;1.67;;;5.70;99.90;;;;;;5083739;28;20040;-64
2023/01/15 11:09:04;;;;;;;17.08;2.13;;;5.80;99.90;;;;;;5071007;28;20449;-64
2023/01/15 11:20:35;;;;;;;12.75;1.67;;;6.20;99.90;;;;;;5079261;28;20032;-64
2023/01/15 11:23:13;;;;;;;12.90;1.75;;;6.20;99.90;;;;;;5075174;28;20063;-64
2023/01/15 11:25:48;;;;;;;8.98;1.13;;;6.20;99.90;;;;;;5064346;28;20045;-64
2023/01/15 11:28:14;;;;;;;11.13;1.83;;;6.10;99.90;;;;;;5080886;28;20040;-65
2023/01/15 11:30:41;;;;;;;11.00;1.30;;;6.10;99.90;;;;;;5083332;28;20044;-64
2023/01/15 11:33:22;;;;;;;10.95;1.50;;;6.10;99.90;;;;;;5084455;28;20055;-64
2023/01/15 11:35:57;;;;;;;16.95;1.67;;;6.20;99.90;;;;;;5081199;28;20435;-64
2023/01/15 11:38:24;;;;;;;13.88;2.30;;;6.20;99.90;;;;;;5061445;28;20447;-64
2023/01/15 11:40:56;;;;;;;8.43;2.10;;;6.20;99.90;;;;;;5079680;28;20051;-64
2023/01/15 11:52:11;;;;;;;15.90;2.38;;;6.50;99.90;;;;;;5079836;28;20055;-66
2023/01/15 11:54:42;;;;;;;17.27;2.20;;;6.50;99.90;;;;;;5060897;28;20124;-66
2023/01/15 11:57:09;;;;;;;7.68;1.25;;;6.60;99.90;;;;;;5078962;28;20124;-64
2023/01/15 11:59:36;;;;;;;14.63;1.88;;;6.60;99.90;;;;;;5083587;28;20423;-65
2023/01/15 12:02:12;;;;;;;7.10;1.30;;;6.60;99.90;;;;;;5084023;28;20047;-66
2023/01/15 12:04:45;;;;;;;15.40;2.65;;;6.50;99.90;;;;;;5066816;28;20106;-64
2023/01/15 12:07:14;;;;;;;9.18;1.33;;;6.40;99.90;;;;;;5083015;28;20127;-64
2023/01/15 12:10:00;;;;;;;9.52;1.38;;;6.40;99.90;;;;;;5082008;28;20093;-64
2023/01/15 12:12:53;;;;;;;11.45;1.70;;;6.50;99.90;;;;;;5083303;28;20036;-65
2023/01/15 12:15:28;;;;;;;14.43;1.73;;;6.50;99.90;;;;;;5080050;28;20111;-64
2023/01/15 12:18:08;;;;;;;10.38;1.98;;;6.60;99.90;;;;;;5078045;28;20032;-64
2023/01/15 12:20:55;;;;;;;11.63;1.98;;;6.60;99.90;;;;;;5086220;28;20028;-64
2023/01/15 12:23:24;;;;;;;11.15;1.95;;;6.70;99.90;;;;;;5082645;28;20039;-64
2023/01/15 12:25:52;;;;;;;11.15;1.65;;;6.60;99.90;;;;;;5085107;28;20387;-65
2023/01/15 12:28:31;;;;;;;12.23;1.52;;;6.60;99.90;;;;;;5077954;28;20040;-64
2023/01/15 12:31:10;;;;;;;14.15;1.75;;;6.50;99.90;;;;;;5078326;28;20033;-65
2023/01/15 12:33:38;;;;;;;12.90;2.80;;;6.50;99.90;;;;;;5075465;28;20079;-64
2023/01/15 12:36:19;;;;;;;11.98;1.40;;;6.50;99.90;;;;;;5071058;28;20098;-64
2023/01/15 12:38:54;;;;;;;9.05;1.60;;;6.60;99.90;;;;;;5079550;28;20036;-64
2023/01/15 12:47:40;;;;;;;11.10;1.58;;;6.80;99.90;;;;;;5077839;28;20040;-65
2023/01/15 12:50:45;;;;;;;9.75;1.50;;;6.80;99.90;;;;;;5078864;28;20066;-65
2023/01/15 12:53:23;;;;;;;10.25;1.50;;;6.90;99.90;;;;;;5081713;28;20036;-65
2023/01/15 12:56:23;;;;;;;13.73;1.90;;;7.00;99.90;;;;;;5081206;28;20052;-64
2023/01/15 12:59:28;;;;;;;11.43;1.70;;;7.10;99.90;;;;;;5048538;28;20464;-64
2023/01/15 13:02:28;;;;;;;9.87;1.30;;;7.10;99.90;;;;;;5061629;28;20254;-65
2023/01/15 13:05:17;;;;;;;9.05;1.63;;;7.10;99.90;;;;;;5075411;28;20614;-65
2023/01/15 13:07:48;;;;;;;8.38;1.02;;;7.00;99.90;;;;;;5060629;28;20245;-65
2023/01/15 13:10:23;;;;;;;9.95;1.05;;;6.90;99.90;;;;;;5065249;28;20235;-65
2023/01/15 13:12:52;;;;;;;10.63;1.30;;;6.80;99.90;;;;;;5081792;28;20128;-64
2023/01/15 13:15:23;;;;;;;9.70;1.80;;;6.80;99.90;;;;;;5082509;28;20044;-65
2023/01/15 13:18:20;;;;;;;8.98;1.17;;;6.70;99.90;;;;;;5079630;28;20034;-64
2023/01/15 13:20:50;;;;;;;8.35;1.17;;;6.70;99.90;;;;;;5075969;28;20515;-65
2023/01/15 13:23:41;;;;;;;12.43;1.27;;;6.60;99.90;;;;;;5083211;28;20066;-65
2023/01/15 13:26:09;;;;;;;11.95;1.80;;;6.70;99.90;;;;;;5081123;28;20078;-65
2023/01/15 13:29:01;;;;;;;8.95;1.50;;;6.60;99.90;;;;;;5078625;28;20044;-65
2023/01/15 13:31:52;;;;;;;10.05;1.90;;;6.70;99.90;;;;;;5078855;28;20484;-65
2023/01/15 13:34:35;;;;;;;11.63;1.45;;;6.70;99.90;;;;;;5079030;28;20044;-65
2023/01/15 13:37:09;;;;;;;13.23;1.48;;;6.70;99.90;;;;;;5080308;28;20079;-65
2023/01/15 13:39:40;;;;;;;13.68;1.75;;;6.70;99.90;;;;;;5077104;28;20120;-65
2023/01/15 13:42:31;;;;;;;11.13;2.10;;;6.70;99.90;;;;;;5056949;28;20049;-65
2023/01/15 13:45:00;;;;;;;14.32;2.33;;;6.80;99.90;;;;;;5059091;28;20043;-65
2023/01/15 13:47:33;;;;;;;16.50;2.95;;;6.70;99.90;;;;;;5082147;28;20040;-64
2023/01/15 13:50:04;;;;;;;12.35;2.28;;;6.70;99.90;;;;;;5062490;28;20032;-64
2023/01/15 13:52:32;;;;;;;12.57;1.77;;;6.80;99.90;;;;;;5081238;28;20043;-65
2023/01/15 13:55:11;;;;;;;6.68;1.60;;;6.80;99.90;;;;;;5080418;28;20080;-64
2023/01/15 13:57:40;;;;;;;9.88;2.05;;;6.90;99.90;;;;;;5060231;28;20040;-64
2023/01/15 14:00:31;;;;;;;11.55;2.22;;;6.90;99.90;;;;;;5073538;28;20114;-64
2023/01/15 14:03:21;;;;;;;11.52;1.70;;;7.00;99.90;;;;;;5056533;28;20526;-64